createdAt,value
2022-10-09T00:00:23.132Z,9.42
2022-10-09T00:01:57.140Z,9.40
2022-10-09T00:03:30.460Z,9.40
2022-10-09T00:05:05.667Z,9.40
2022-10-09T00:06:39.518Z,9.40
2022-10-09T00:08:13.123Z,9.41
2022-10-09T00:09:47.262Z,9.43
2022-10-09T00:11:22.552Z,9.44
2022-10-09T00:12:54.748Z,9.44
2022-10-09T00:14:28.023Z,9.43
2022-10-09T00:16:03.355Z,9.42
2022-10-09T00:17:36.867Z,9.36
2022-10-09T00:19:09.986Z,9.30
2022-10-09T00:20:46.762Z,9.33
2022-10-09T00:22:20.054Z,9.29
2022-10-09T00:23:55.550Z,9.25
2022-10-09T00:25:29.109Z,9.22
2022-10-09T00:27:02.272Z,9.20
2022-10-09T00:28:38.668Z,9.18
2022-10-09T00:30:13.473Z,9.14
2022-10-09T00:31:46.666Z,9.07
2022-10-09T00:33:19.355Z,9.04
2022-10-09T00:34:52.939Z,9.00
2022-10-09T00:36:28.290Z,8.92
2022-10-09T00:38:00.434Z,8.92
2022-10-09T00:39:33.674Z,8.89
2022-10-09T00:41:07.795Z,8.89
2022-10-09T00:42:41.509Z,8.91
2022-10-09T00:44:57.773Z,8.78
2022-10-09T00:46:37.803Z,8.87
2022-10-09T00:48:12.890Z,8.85
2022-10-09T00:49:46.402Z,8.84
2022-10-09T00:51:19.589Z,8.85
2022-10-09T00:52:58.533Z,8.85
2022-10-09T00:54:35.677Z,8.85
2022-10-09T00:56:09.271Z,8.88
2022-10-09T00:57:44.413Z,8.90
2022-10-09T00:59:18.933Z,8.89
2022-10-09T01:00:51.632Z,8.81
2022-10-09T01:02:24.880Z,8.78
2022-10-09T01:03:58.340Z,8.67
2022-10-09T01:05:44.376Z,8.77
2022-10-09T01:07:34.626Z,8.73
2022-10-09T01:09:13.694Z,8.79
2022-10-09T01:10:53.124Z,8.80
2022-10-09T01:12:37.616Z,8.75
2022-10-09T01:14:19.774Z,8.82
2022-10-09T01:15:56.189Z,8.81
2022-10-09T01:17:35.597Z,8.76
2022-10-09T01:19:21.592Z,8.72
2022-10-09T01:20:59.407Z,8.75
2022-10-09T01:22:47.381Z,8.75
2022-10-09T01:24:31.282Z,8.73
2022-10-09T01:26:14.656Z,8.70
2022-10-09T01:27:49.523Z,8.68
2022-10-09T01:29:24.770Z,8.61
2022-10-09T01:31:01.454Z,8.56
2022-10-09T01:32:39.260Z,8.44
2022-10-09T01:34:14.256Z,8.43
2022-10-09T01:35:48.520Z,8.38
2022-10-09T01:37:24.509Z,8.34
2022-10-09T01:38:59.932Z,8.32
2022-10-09T01:40:33.375Z,8.31
2022-10-09T01:42:07.806Z,8.30
2022-10-09T01:43:43.351Z,8.34
2022-10-09T01:45:17.221Z,8.37
2022-10-09T01:46:49.764Z,8.38
2022-10-09T01:48:26.044Z,8.32
2022-10-09T01:50:05.219Z,8.33
2022-10-09T01:51:45.360Z,8.30
2022-10-09T01:53:21.283Z,8.28
2022-10-09T01:55:09.259Z,8.29
2022-10-09T01:56:44.928Z,8.32
2022-10-09T01:58:23.191Z,8.34
2022-10-09T02:00:00.507Z,8.35
2022-10-09T02:01:37.160Z,8.38
2022-10-09T02:03:14.633Z,8.44
2022-10-09T02:04:49.939Z,8.47
2022-10-09T02:06:22.141Z,8.38
2022-10-09T02:07:56.659Z,8.47
2022-10-09T02:09:31.760Z,8.49
2022-10-09T02:11:05.586Z,8.46
2022-10-09T02:12:43.808Z,8.42
2022-10-09T02:14:17.507Z,8.30
2022-10-09T02:15:57.356Z,8.33
2022-10-09T02:17:34.967Z,8.29
2022-10-09T02:19:14.321Z,8.26
2022-10-09T02:20:53.123Z,8.24
2022-10-09T02:22:28.918Z,8.18
2022-10-09T02:24:03.607Z,8.13
2022-10-09T02:25:37.347Z,8.08
2022-10-09T02:27:12.501Z,8.07
2022-10-09T02:28:46.336Z,8.08
2022-10-09T02:30:22.081Z,8.06
2022-10-09T02:31:55.832Z,8.01
2022-10-09T02:33:32.538Z,8.02
2022-10-09T02:35:06.649Z,8.00
2022-10-09T02:36:39.788Z,8.03
2022-10-09T02:38:12.989Z,8.08
2022-10-09T02:39:46.550Z,8.15
2022-10-09T02:41:18.751Z,8.01
2022-10-09T02:42:52.015Z,8.17
2022-10-09T02:44:25.314Z,8.18
2022-10-09T02:45:57.836Z,8.20
2022-10-09T02:47:32.468Z,8.20
2022-10-09T02:49:05.890Z,8.18
2022-10-09T02:50:37.995Z,8.18
2022-10-09T02:52:11.712Z,8.18
2022-10-09T02:53:45.218Z,8.17
2022-10-09T02:55:18.380Z,8.14
2022-10-09T02:56:50.548Z,8.06
2022-10-09T02:58:24.240Z,8.04
2022-10-09T02:59:57.774Z,8.06
2022-10-09T03:01:32.302Z,8.05
2022-10-09T03:03:06.246Z,8.04
2022-10-09T03:04:39.677Z,8.03
2022-10-09T03:06:14.235Z,8.01
2022-10-09T03:07:51.555Z,7.99
2022-10-09T03:09:25.085Z,7.96
2022-10-09T03:10:58.741Z,7.92
2022-10-09T03:12:31.891Z,7.89
2022-10-09T03:14:05.022Z,7.89
2022-10-09T03:15:38.732Z,7.89
2022-10-09T03:17:12.186Z,7.83
2022-10-09T03:18:47.236Z,7.82
2022-10-09T03:20:19.564Z,7.79
2022-10-09T03:21:52.744Z,7.78
2022-10-09T03:23:26.155Z,7.76
2022-10-09T03:24:59.373Z,7.78
2022-10-09T03:26:32.804Z,7.78
2022-10-09T03:28:06.340Z,7.74
2022-10-09T03:29:38.619Z,7.73
2022-10-09T03:31:22.597Z,7.70
2022-10-09T03:33:00.949Z,7.65
2022-10-09T03:34:34.465Z,7.67
2022-10-09T03:36:08.831Z,7.62
2022-10-09T03:37:42.091Z,7.64
2022-10-09T03:39:15.482Z,7.65
2022-10-09T03:40:47.722Z,7.63
2022-10-09T03:42:21.011Z,7.62
2022-10-09T03:43:54.159Z,7.64
2022-10-09T03:45:26.511Z,7.65
2022-10-09T03:47:00.370Z,7.66
2022-10-09T03:48:33.746Z,7.68
2022-10-09T03:50:09.499Z,7.71
2022-10-09T03:51:42.784Z,7.75
2022-10-09T03:53:15.594Z,7.74
2022-10-09T03:54:49.078Z,7.69
2022-10-09T03:56:21.211Z,7.63
2022-10-09T03:57:54.566Z,7.60
2022-10-09T03:59:27.876Z,7.64
2022-10-09T04:01:00.220Z,7.66
2022-10-09T04:02:34.453Z,7.66
2022-10-09T04:04:08.142Z,7.61
2022-10-09T04:05:42.657Z,7.56
2022-10-09T04:07:16.615Z,7.56
2022-10-09T04:08:48.740Z,7.57
2022-10-09T04:10:22.154Z,7.53
2022-10-09T04:11:55.630Z,7.48
2022-10-09T04:13:28.977Z,7.42
2022-10-09T04:15:02.187Z,7.57
2022-10-09T04:16:34.565Z,7.62
2022-10-09T04:18:07.945Z,7.63
2022-10-09T04:19:41.160Z,7.60
2022-10-09T04:21:15.772Z,7.60
2022-10-09T04:22:49.292Z,7.61
2022-10-09T04:24:22.868Z,7.61
2022-10-09T04:25:57.110Z,7.57
2022-10-09T04:27:30.850Z,7.55
2022-10-09T04:29:03.208Z,7.56
2022-10-09T04:30:36.375Z,7.56
2022-10-09T04:32:10.270Z,7.57
2022-10-09T04:33:42.518Z,7.61
2022-10-09T04:35:16.880Z,7.62
2022-10-09T04:36:51.439Z,7.66
2022-10-09T04:38:24.564Z,7.67
2022-10-09T04:39:57.735Z,7.66
2022-10-09T04:41:32.573Z,7.67
2022-10-09T04:43:07.996Z,7.67
2022-10-09T04:44:41.545Z,7.66
2022-10-09T04:46:16.220Z,7.66
2022-10-09T04:47:49.636Z,7.67
2022-10-09T04:49:22.870Z,7.70
2022-10-09T04:50:56.052Z,7.69
2022-10-09T04:52:31.096Z,7.67
2022-10-09T04:54:04.387Z,7.64
2022-10-09T04:55:41.601Z,7.60
2022-10-09T04:57:15.163Z,7.60
2022-10-09T04:58:50.305Z,7.50
2022-10-09T05:00:24.033Z,7.65
2022-10-09T05:01:57.228Z,7.61
2022-10-09T05:03:30.468Z,7.78
2022-10-09T05:05:03.887Z,7.92
2022-10-09T05:06:37.224Z,8.07
2022-10-09T05:08:11.807Z,8.34
2022-10-09T05:09:45.109Z,8.62
2022-10-09T05:11:19.477Z,8.90
2022-10-09T05:12:52.845Z,9.15
2022-10-09T05:14:26.300Z,9.32
2022-10-09T05:16:02.386Z,9.32
2022-10-09T05:17:35.869Z,9.42
2022-10-09T05:19:09.275Z,9.46
2022-10-09T05:20:42.718Z,9.60
2022-10-09T05:22:15.998Z,9.63
2022-10-09T05:23:50.048Z,9.65
2022-10-09T05:25:23.420Z,9.74
2022-10-09T05:26:56.853Z,9.90
2022-10-09T05:28:30.441Z,10.09
2022-10-09T05:30:03.741Z,10.23
2022-10-09T05:31:37.710Z,10.46
2022-10-09T05:33:11.461Z,10.75
2022-10-09T05:34:44.899Z,11.12
2022-10-09T05:36:18.646Z,11.43
2022-10-09T05:37:52.210Z,11.78
2022-10-09T05:39:27.021Z,12.10
2022-10-09T05:41:02.465Z,12.41
2022-10-09T05:42:35.596Z,12.72
2022-10-09T05:44:08.991Z,12.97
2022-10-09T05:45:42.317Z,13.21
2022-10-09T05:47:18.278Z,13.51
2022-10-09T05:48:55.339Z,13.71
2022-10-09T05:50:28.528Z,13.92
2022-10-09T05:52:02.180Z,13.90
2022-10-09T05:53:34.884Z,14.02
2022-10-09T05:55:09.942Z,14.21
2022-10-09T05:56:44.393Z,14.32
2022-10-09T05:58:17.640Z,14.55
2022-10-09T05:59:50.965Z,14.67
2022-10-09T06:01:24.847Z,14.96
2022-10-09T06:02:58.190Z,15.15
2022-10-09T06:04:31.635Z,15.39
2022-10-09T06:06:06.419Z,15.55
2022-10-09T06:07:39.577Z,15.57
2022-10-09T06:09:13.090Z,15.58
2022-10-09T06:10:47.618Z,15.71
2022-10-09T06:12:20.900Z,15.80
2022-10-09T06:13:53.136Z,16.04
2022-10-09T06:15:26.430Z,16.14
2022-10-09T06:17:01.472Z,16.32
2022-10-09T06:18:34.100Z,16.42
2022-10-09T06:20:07.986Z,16.45
2022-10-09T06:21:41.501Z,16.36
2022-10-09T06:23:13.823Z,16.40
2022-10-09T06:24:47.242Z,16.64
2022-10-09T06:26:23.054Z,16.88
2022-10-09T06:27:56.198Z,17.04
2022-10-09T06:29:30.379Z,17.13
2022-10-09T06:31:04.785Z,17.26
2022-10-09T06:32:37.993Z,17.33
2022-10-09T06:34:11.847Z,17.36
2022-10-09T06:35:44.238Z,17.65
2022-10-09T06:37:17.391Z,17.83
2022-10-09T06:38:51.053Z,17.96
2022-10-09T06:40:24.256Z,17.94
2022-10-09T06:41:59.011Z,18.00
2022-10-09T06:43:57.229Z,18.10
2022-10-09T06:45:31.007Z,18.23
2022-10-09T06:47:04.471Z,18.35
2022-10-09T06:48:39.304Z,18.44
2022-10-09T06:50:12.670Z,18.52
2022-10-09T06:51:46.166Z,18.43
2022-10-09T06:53:19.577Z,18.35
2022-10-09T06:54:52.732Z,18.53
2022-10-09T06:56:27.948Z,18.87
2022-10-09T06:58:02.503Z,19.15
2022-10-09T06:59:35.863Z,19.10
2022-10-09T07:01:11.339Z,18.95
2022-10-09T07:02:44.604Z,19.16
2022-10-09T07:04:18.784Z,19.19
2022-10-09T07:05:52.416Z,19.48
2022-10-09T07:07:24.860Z,19.66
2022-10-09T07:09:00.532Z,19.78
2022-10-09T07:10:33.760Z,19.85
2022-10-09T07:12:06.990Z,20.04
2022-10-09T07:13:42.681Z,20.04
2022-10-09T07:15:16.172Z,20.10
2022-10-09T07:16:50.204Z,20.28
2022-10-09T07:18:22.447Z,20.47
2022-10-09T07:19:55.576Z,20.79
2022-10-09T07:21:29.118Z,20.87
2022-10-09T07:23:02.575Z,20.85
2022-10-09T07:24:35.955Z,20.85
2022-10-09T07:26:14.624Z,20.68
2022-10-09T07:27:48.093Z,20.81
2022-10-09T07:29:22.654Z,20.78
2022-10-09T07:30:56.475Z,20.96
2022-10-09T07:32:29.758Z,21.11
2022-10-09T07:34:03.394Z,21.22
2022-10-09T07:35:36.580Z,21.17
2022-10-09T07:37:09.919Z,21.15
2022-10-09T07:38:43.199Z,21.01
2022-10-09T07:40:16.605Z,21.06
2022-10-09T07:41:51.716Z,21.37
2022-10-09T07:43:25.062Z,21.62
2022-10-09T07:44:59.805Z,21.33
2022-10-09T07:46:34.145Z,20.98
2022-10-09T07:48:08.028Z,21.06
2022-10-09T07:49:41.515Z,21.17
2022-10-09T07:51:16.385Z,21.48
2022-10-09T07:52:50.199Z,21.64
2022-10-09T07:54:22.750Z,21.77
2022-10-09T07:55:56.179Z,21.87
2022-10-09T07:57:29.318Z,21.90
2022-10-09T07:59:04.291Z,22.00
2022-10-09T08:00:39.029Z,22.17
2022-10-09T08:02:12.319Z,22.21
2022-10-09T08:03:44.702Z,22.49
2022-10-09T08:05:18.456Z,22.59
2022-10-09T08:06:51.716Z,22.93
2022-10-09T08:08:24.220Z,23.26
2022-10-09T08:09:57.434Z,23.10
2022-10-09T08:11:31.839Z,23.26
2022-10-09T08:13:05.044Z,23.47
2022-10-09T08:14:38.321Z,23.78
2022-10-09T08:16:13.902Z,23.99
2022-10-09T08:17:46.213Z,24.13
2022-10-09T08:19:19.440Z,23.98
2022-10-09T08:20:59.938Z,23.91
2022-10-09T08:22:33.175Z,23.82
2022-10-09T08:24:07.047Z,23.71
2022-10-09T08:25:40.298Z,23.66
2022-10-09T08:27:13.599Z,23.71
2022-10-09T08:28:51.000Z,23.62
2022-10-09T08:30:24.439Z,23.84
2022-10-09T08:31:59.140Z,23.78
2022-10-09T08:33:32.578Z,23.89
2022-10-09T08:35:06.453Z,23.73
2022-10-09T08:36:39.820Z,23.45
2022-10-09T08:38:30.929Z,23.56
2022-10-09T08:40:09.057Z,23.88
2022-10-09T08:41:48.097Z,24.07
2022-10-09T08:43:26.861Z,24.06
2022-10-09T08:45:00.140Z,24.24
2022-10-09T08:46:43.920Z,24.46
2022-10-09T08:48:23.645Z,24.48
2022-10-09T08:50:01.467Z,24.52
2022-10-09T08:51:39.834Z,24.52
2022-10-09T08:53:26.748Z,24.60
2022-10-09T08:55:05.108Z,24.96
2022-10-09T08:56:38.602Z,25.19
2022-10-09T08:58:17.291Z,25.10
2022-10-09T08:59:50.658Z,24.93
2022-10-09T09:01:32.879Z,24.50
2022-10-09T09:03:44.926Z,23.90
2022-10-09T09:05:31.661Z,23.48
2022-10-09T09:07:13.493Z,23.23
2022-10-09T09:08:53.436Z,23.04
2022-10-09T09:10:38.108Z,22.82
2022-10-09T09:12:19.257Z,22.74
2022-10-09T09:14:03.478Z,22.60
2022-10-09T09:15:50.075Z,22.73
2022-10-09T09:17:34.512Z,22.63
2022-10-09T09:19:26.737Z,22.64
2022-10-09T09:21:12.260Z,22.56
2022-10-09T09:22:49.791Z,22.52
2022-10-09T09:24:39.135Z,22.50
2022-10-09T09:26:16.734Z,22.57
2022-10-09T09:27:50.565Z,22.58
2022-10-09T09:29:25.107Z,22.66
2022-10-09T09:31:01.738Z,22.64
2022-10-09T09:32:35.364Z,22.77
2022-10-09T09:34:14.324Z,22.71
2022-10-09T09:35:53.358Z,22.75
2022-10-09T09:37:26.774Z,22.72
2022-10-09T09:39:54.300Z,22.69
2022-10-09T09:40:54.962Z,22.70
2022-10-09T09:42:29.793Z,22.72
2022-10-09T09:44:03.164Z,22.74
2022-10-09T09:45:36.587Z,22.81
2022-10-09T09:47:16.444Z,22.88
2022-10-09T09:48:50.742Z,22.98
2022-10-09T09:50:48.462Z,23.03
2022-10-09T09:52:30.123Z,23.01
2022-10-09T09:54:07.798Z,23.07
2022-10-09T09:55:41.527Z,23.04
2022-10-09T09:57:21.002Z,23.06
2022-10-09T09:58:55.347Z,23.20
2022-10-09T10:00:28.852Z,23.21
2022-10-09T10:02:04.356Z,23.19
2022-10-09T10:03:37.778Z,23.15
2022-10-09T10:05:19.100Z,23.15
2022-10-09T10:06:53.642Z,22.98
2022-10-09T10:08:28.386Z,22.91
2022-10-09T10:10:06.957Z,22.98
2022-10-09T10:11:45.835Z,23.08
2022-10-09T10:13:21.387Z,23.17
2022-10-09T10:14:54.843Z,23.24
2022-10-09T10:16:30.302Z,23.31
2022-10-09T10:18:05.656Z,23.32
2022-10-09T10:19:39.726Z,23.37
2022-10-09T10:21:15.580Z,23.47
2022-10-09T10:22:53.718Z,23.54
2022-10-09T10:24:32.850Z,23.49
2022-10-09T10:26:14.490Z,23.52
2022-10-09T10:27:51.933Z,23.41
2022-10-09T10:29:30.719Z,23.31
2022-10-09T10:31:09.550Z,23.36
2022-10-09T10:32:52.405Z,23.34
2022-10-09T10:34:29.347Z,23.38
2022-10-09T10:36:02.688Z,23.44
2022-10-09T10:37:43.946Z,23.48
2022-10-09T10:39:26.470Z,23.32
2022-10-09T10:41:09.832Z,23.39
2022-10-09T10:42:50.904Z,23.38
2022-10-09T10:44:29.596Z,23.44
2022-10-09T10:46:12.461Z,23.55
2022-10-09T10:47:53.048Z,23.56
2022-10-09T10:49:31.656Z,23.56
2022-10-09T10:51:17.459Z,23.60
2022-10-09T10:53:02.751Z,23.65
2022-10-09T10:54:41.247Z,23.73
2022-10-09T10:56:25.001Z,23.65
2022-10-09T10:58:11.617Z,23.81
2022-10-09T10:59:57.758Z,23.86
2022-10-09T11:01:41.693Z,23.93
2022-10-09T11:03:34.583Z,23.99
2022-10-09T11:05:18.929Z,23.96
2022-10-09T11:07:03.162Z,23.87
2022-10-09T11:08:57.306Z,23.85
2022-10-09T11:10:42.934Z,23.83
2022-10-09T11:12:46.810Z,23.84
2022-10-09T11:14:36.447Z,23.97
2022-10-09T11:16:23.610Z,24.05
2022-10-09T11:18:06.033Z,24.02
2022-10-09T11:19:56.271Z,23.98
2022-10-09T11:21:44.014Z,24.07
2022-10-09T11:23:28.185Z,24.11
2022-10-09T11:25:15.948Z,24.27
2022-10-09T11:27:03.163Z,24.27
2022-10-09T11:28:42.277Z,24.37
2022-10-09T11:30:17.960Z,24.23
2022-10-09T11:31:56.419Z,24.01
2022-10-09T11:33:35.842Z,24.03
2022-10-09T11:35:17.118Z,24.11
2022-10-09T11:36:50.406Z,24.11
2022-10-09T11:38:29.734Z,24.08
2022-10-09T11:40:07.631Z,24.11
2022-10-09T11:41:41.881Z,23.99
2022-10-09T11:43:36.898Z,23.82
2022-10-09T11:45:22.117Z,23.92
2022-10-09T11:47:08.892Z,24.08
2022-10-09T11:48:49.700Z,24.18
2022-10-09T11:50:38.148Z,24.27
2022-10-09T11:52:20.288Z,24.29
2022-10-09T11:53:55.231Z,24.25
2022-10-09T11:55:30.763Z,24.21
2022-10-09T11:57:07.067Z,24.20
2022-10-09T11:58:42.812Z,24.17
2022-10-09T12:00:17.008Z,24.13
2022-10-09T12:01:50.337Z,24.04
2022-10-09T12:03:33.216Z,24.10
2022-10-09T12:05:18.317Z,24.12
2022-10-09T12:06:54.575Z,24.15
2022-10-09T12:08:28.870Z,24.16
2022-10-09T12:10:09.501Z,24.10
2022-10-09T12:11:54.446Z,24.09
2022-10-09T12:13:45.984Z,24.10
2022-10-09T12:15:39.204Z,24.13
2022-10-09T12:17:34.234Z,24.12
2022-10-09T12:19:16.781Z,24.15
2022-10-09T12:20:51.974Z,24.20
2022-10-09T12:22:31.335Z,24.19
2022-10-09T12:24:04.974Z,24.18
2022-10-09T12:25:44.034Z,24.21
2022-10-09T12:27:23.243Z,24.19
2022-10-09T12:29:02.965Z,24.20
2022-10-09T12:30:47.477Z,24.24
2022-10-09T12:32:29.525Z,24.29
2022-10-09T12:34:10.181Z,24.25
2022-10-09T12:35:46.056Z,24.25
2022-10-09T12:37:22.521Z,24.16
2022-10-09T12:38:56.963Z,24.22
2022-10-09T12:40:32.885Z,24.27
2022-10-09T12:42:07.098Z,24.32
2022-10-09T12:43:45.848Z,24.36
2022-10-09T12:45:25.227Z,24.42
2022-10-09T12:47:01.885Z,24.40
2022-10-09T12:48:40.077Z,24.39
2022-10-09T12:50:23.223Z,24.36
2022-10-09T12:52:00.437Z,24.38
2022-10-09T12:53:33.719Z,24.36
2022-10-09T12:55:19.082Z,24.37
2022-10-09T12:56:55.572Z,24.40
2022-10-09T12:58:33.449Z,24.44
2022-10-09T13:00:09.021Z,24.41
2022-10-09T13:01:44.640Z,24.38
2022-10-09T13:03:35.477Z,24.40
2022-10-09T13:05:12.594Z,24.46
2022-10-09T13:06:50.819Z,24.45
2022-10-09T13:08:28.108Z,24.43
2022-10-09T13:10:06.739Z,24.39
2022-10-09T13:11:44.550Z,24.33
2022-10-09T13:13:22.648Z,24.38
2022-10-09T13:14:57.477Z,24.34
2022-10-09T13:16:41.010Z,24.35
2022-10-09T13:18:22.707Z,24.30
2022-10-09T13:19:59.385Z,24.32
2022-10-09T13:21:35.376Z,24.27
2022-10-09T13:23:09.098Z,24.28
2022-10-09T13:24:42.374Z,24.32
2022-10-09T13:26:23.767Z,24.37
2022-10-09T13:27:58.150Z,24.34
2022-10-09T13:29:31.572Z,24.30
2022-10-09T13:31:09.428Z,24.26
2022-10-09T13:32:42.643Z,24.12
2022-10-09T13:34:18.975Z,24.16
2022-10-09T13:35:52.388Z,24.18
2022-10-09T13:37:27.644Z,24.22
2022-10-09T13:39:00.838Z,24.26
2022-10-09T13:40:34.099Z,24.30
2022-10-09T13:42:07.777Z,24.33
2022-10-09T13:43:41.069Z,24.32
2022-10-09T13:45:14.289Z,24.30
2022-10-09T13:46:47.405Z,24.29
2022-10-09T13:48:20.818Z,24.29
2022-10-09T13:49:55.748Z,24.31
2022-10-09T13:51:29.249Z,24.31
2022-10-09T13:53:02.460Z,24.30
2022-10-09T13:54:36.032Z,24.30
2022-10-09T13:56:09.661Z,24.32
2022-10-09T13:57:42.762Z,24.34
2022-10-09T13:59:16.079Z,24.33
2022-10-09T14:00:50.226Z,24.34
2022-10-09T14:02:23.784Z,24.33
2022-10-09T14:03:57.313Z,24.28
2022-10-09T14:05:31.853Z,24.31
2022-10-09T14:07:05.081Z,24.28
2022-10-09T14:08:38.690Z,24.28
2022-10-09T14:10:12.061Z,24.28
2022-10-09T14:11:45.313Z,24.22
2022-10-09T14:13:19.479Z,24.24
2022-10-09T14:14:54.513Z,24.19
2022-10-09T14:16:28.008Z,24.18
2022-10-09T14:18:01.184Z,24.17
2022-10-09T14:19:34.447Z,24.15
2022-10-09T14:21:15.258Z,24.10
2022-10-09T14:22:49.491Z,24.05
2022-10-09T14:24:22.938Z,24.03
2022-10-09T14:25:56.303Z,23.99
2022-10-09T14:27:29.641Z,23.97
2022-10-09T14:29:04.161Z,23.96
2022-10-09T14:30:41.306Z,23.94
2022-10-09T14:32:14.984Z,23.91
2022-10-09T14:33:49.413Z,23.90
2022-10-09T14:35:22.630Z,23.87
2022-10-09T14:36:57.262Z,23.78
2022-10-09T14:38:30.694Z,23.79
2022-10-09T14:40:04.263Z,23.76
2022-10-09T14:41:38.061Z,23.74
2022-10-09T14:43:11.568Z,23.74
2022-10-09T14:44:45.210Z,23.72
2022-10-09T14:46:19.394Z,23.71
2022-10-09T14:47:52.573Z,23.69
2022-10-09T14:49:25.799Z,23.68
2022-10-09T14:51:03.147Z,23.63
2022-10-09T14:52:37.781Z,23.60
2022-10-09T14:54:13.325Z,23.57
2022-10-09T14:55:46.566Z,23.46
2022-10-09T14:57:20.258Z,23.47
2022-10-09T14:58:53.388Z,23.42
2022-10-09T15:00:26.564Z,23.36
2022-10-09T15:01:59.819Z,23.31
2022-10-09T15:03:35.385Z,23.27
2022-10-09T15:05:09.139Z,23.24
2022-10-09T15:06:42.357Z,23.23
2022-10-09T15:08:17.080Z,23.19
2022-10-09T15:09:50.264Z,23.21
2022-10-09T15:11:24.096Z,23.23
2022-10-09T15:12:57.231Z,23.28
2022-10-09T15:14:30.683Z,23.28
2022-10-09T15:16:06.190Z,23.30
2022-10-09T15:17:39.994Z,23.26
2022-10-09T15:19:13.163Z,23.20
2022-10-09T15:20:46.816Z,23.10
2022-10-09T15:22:20.394Z,23.15
2022-10-09T15:23:57.077Z,23.17
2022-10-09T15:25:31.756Z,23.16
2022-10-09T15:27:05.734Z,23.07
2022-10-09T15:28:40.979Z,22.93
2022-10-09T15:30:14.585Z,22.81
2022-10-09T15:31:50.911Z,22.72
2022-10-09T15:33:24.958Z,22.62
2022-10-09T15:34:58.276Z,22.52
2022-10-09T15:36:34.790Z,22.41
2022-10-09T15:38:08.789Z,22.29
2022-10-09T15:39:43.429Z,22.19
2022-10-09T15:41:27.342Z,22.09
2022-10-09T15:43:00.462Z,21.98
2022-10-09T15:44:33.734Z,21.85
2022-10-09T15:46:07.172Z,21.73
2022-10-09T15:47:50.895Z,21.57
2022-10-09T15:49:24.715Z,21.48
2022-10-09T15:50:58.045Z,21.39
2022-10-09T15:52:31.227Z,21.34
2022-10-09T15:54:05.367Z,21.27
2022-10-09T15:55:40.293Z,21.21
2022-10-09T15:57:13.475Z,21.13
2022-10-09T15:58:46.593Z,21.08
2022-10-09T16:00:20.117Z,21.00
2022-10-09T16:01:53.289Z,20.98
2022-10-09T16:03:26.552Z,20.88
2022-10-09T16:04:59.743Z,20.77
2022-10-09T16:06:33.322Z,20.71
2022-10-09T16:08:07.363Z,20.62
2022-10-09T16:09:40.580Z,20.57
2022-10-09T16:11:20.167Z,20.51
2022-10-09T16:12:57.150Z,20.41
2022-10-09T16:14:31.420Z,20.33
2022-10-09T16:16:06.924Z,20.26
2022-10-09T16:17:40.167Z,20.18
2022-10-09T16:19:13.883Z,20.07
2022-10-09T16:20:47.927Z,19.92
2022-10-09T16:22:21.026Z,19.79
2022-10-09T16:23:58.876Z,19.66
2022-10-09T16:25:33.201Z,19.57
2022-10-09T16:27:07.725Z,19.48
2022-10-09T16:28:41.054Z,19.41
2022-10-09T16:30:15.123Z,19.47
2022-10-09T16:31:48.621Z,19.46
2022-10-09T16:33:21.840Z,19.43
2022-10-09T16:34:56.075Z,19.40
2022-10-09T16:36:29.717Z,19.37
2022-10-09T16:38:04.799Z,19.33
2022-10-09T16:39:37.947Z,19.24
2022-10-09T16:41:13.327Z,19.14
2022-10-09T16:42:48.164Z,19.05
2022-10-09T16:44:22.089Z,18.95
2022-10-09T16:45:55.379Z,18.82
2022-10-09T16:47:28.817Z,18.70
2022-10-09T16:49:03.498Z,18.59
2022-10-09T16:50:41.692Z,18.51
2022-10-09T16:52:14.925Z,18.44
2022-10-09T16:53:50.675Z,18.33
2022-10-09T16:55:24.557Z,18.35
2022-10-09T16:56:58.550Z,18.29
2022-10-09T16:58:34.293Z,18.24
2022-10-09T17:00:08.357Z,18.17
2022-10-09T17:01:45.214Z,18.12
2022-10-09T17:03:18.519Z,18.06
2022-10-09T17:04:51.644Z,17.97
2022-10-09T17:06:25.486Z,17.91
2022-10-09T17:07:58.698Z,17.81
2022-10-09T17:09:33.506Z,17.71
2022-10-09T17:11:10.644Z,17.63
2022-10-09T17:12:43.804Z,17.56
2022-10-09T17:14:18.484Z,17.51
2022-10-09T17:15:52.349Z,17.43
2022-10-09T17:17:25.596Z,17.37
2022-10-09T17:18:59.186Z,17.31
2022-10-09T17:20:32.548Z,17.30
2022-10-09T17:22:06.498Z,17.27
2022-10-09T17:23:39.994Z,17.32
2022-10-09T17:25:15.666Z,17.28
2022-10-09T17:26:48.961Z,17.27
2022-10-09T17:28:22.216Z,17.24
2022-10-09T17:29:56.888Z,17.18
2022-10-09T17:31:31.145Z,17.16
2022-10-09T17:33:04.363Z,17.15
2022-10-09T17:34:43.046Z,17.12
2022-10-09T17:36:18.412Z,17.10
2022-10-09T17:37:51.822Z,17.07
2022-10-09T17:39:25.076Z,17.05
2022-10-09T17:40:58.553Z,17.01
2022-10-09T17:42:31.735Z,16.96
2022-10-09T17:44:05.761Z,16.88
2022-10-09T17:45:42.946Z,16.82
2022-10-09T17:47:16.437Z,16.70
2022-10-09T17:48:53.326Z,16.62
2022-10-09T17:50:26.634Z,16.62
2022-10-09T17:51:59.921Z,16.49
2022-10-09T17:53:33.973Z,16.52
2022-10-09T17:55:08.411Z,16.46
2022-10-09T17:56:42.286Z,16.46
2022-10-09T17:58:15.486Z,16.44
2022-10-09T17:59:48.714Z,16.41
2022-10-09T18:01:24.338Z,16.28
2022-10-09T18:02:58.262Z,16.30
2022-10-09T18:04:31.509Z,16.23
2022-10-09T18:06:06.940Z,16.11
2022-10-09T18:07:40.185Z,16.06
2022-10-09T18:09:13.520Z,16.00
2022-10-09T18:10:47.098Z,15.91
2022-10-09T18:12:20.567Z,15.88
2022-10-09T18:13:54.523Z,15.82
2022-10-09T18:15:27.893Z,15.73
2022-10-09T18:17:02.520Z,15.64
2022-10-09T18:18:35.117Z,15.55
2022-10-09T18:20:09.207Z,15.55
2022-10-09T18:21:45.500Z,15.52
2022-10-09T18:23:22.558Z,15.49
2022-10-09T18:24:56.169Z,15.42
2022-10-09T18:26:29.952Z,15.41
2022-10-09T18:28:03.703Z,15.41
2022-10-09T18:29:38.230Z,15.42
2022-10-09T18:31:12.491Z,15.43
2022-10-09T18:32:47.330Z,15.44
2022-10-09T18:34:20.753Z,15.44
2022-10-09T18:35:52.917Z,15.41
2022-10-09T18:37:26.300Z,15.33
2022-10-09T18:39:02.506Z,15.27
2022-10-09T18:40:44.528Z,15.22
2022-10-09T18:42:18.803Z,15.18
2022-10-09T18:43:52.991Z,15.05
2022-10-09T18:45:26.471Z,15.09
2022-10-09T18:47:00.900Z,14.98
2022-10-09T18:48:38.307Z,14.85
2022-10-09T18:50:14.141Z,14.82
2022-10-09T18:51:48.783Z,14.81
2022-10-09T18:53:22.035Z,14.81
2022-10-09T18:54:56.491Z,14.76
2022-10-09T18:56:32.319Z,14.78
2022-10-09T18:58:06.175Z,14.81
2022-10-09T18:59:40.584Z,14.84
2022-10-09T19:01:14.091Z,14.87
2022-10-09T19:02:47.668Z,14.89
2022-10-09T19:04:22.494Z,14.87
2022-10-09T19:05:55.697Z,14.84
2022-10-09T19:07:29.582Z,14.83
2022-10-09T19:09:03.297Z,14.84
2022-10-09T19:10:36.810Z,14.83
2022-10-09T19:12:10.222Z,14.80
2022-10-09T19:13:44.261Z,14.76
2022-10-09T19:15:17.987Z,14.74
2022-10-09T19:16:51.229Z,14.72
2022-10-09T19:18:24.554Z,14.69
2022-10-09T19:19:59.179Z,14.64
2022-10-09T19:21:32.502Z,14.63
2022-10-09T19:23:05.680Z,14.63
2022-10-09T19:24:39.135Z,14.56
2022-10-09T19:26:13.847Z,14.64
2022-10-09T19:27:47.180Z,14.62
2022-10-09T19:29:20.831Z,14.60
2022-10-09T19:30:54.549Z,14.57
2022-10-09T19:32:27.881Z,14.51
2022-10-09T19:34:01.254Z,14.40
2022-10-09T19:35:35.895Z,14.27
2022-10-09T19:37:09.032Z,14.15
2022-10-09T19:38:42.668Z,14.10
2022-10-09T19:40:15.908Z,13.96
2022-10-09T19:41:51.211Z,14.00
2022-10-09T19:43:25.519Z,13.95
2022-10-09T19:44:58.973Z,13.96
2022-10-09T19:46:32.196Z,13.94
2022-10-09T19:48:05.854Z,13.91
2022-10-09T19:49:39.083Z,13.93
2022-10-09T19:51:16.271Z,13.88
2022-10-09T19:52:49.662Z,13.84
2022-10-09T19:54:23.027Z,13.82
2022-10-09T19:55:56.394Z,13.80
2022-10-09T19:57:29.665Z,13.79
2022-10-09T19:59:04.905Z,13.77
2022-10-09T20:00:43.049Z,13.76
2022-10-09T20:02:16.409Z,13.71
2022-10-09T20:03:54.343Z,13.70
2022-10-09T20:05:27.985Z,13.66
2022-10-09T20:07:02.518Z,13.62
2022-10-09T20:08:36.001Z,13.59
2022-10-09T20:10:09.989Z,13.57
2022-10-09T20:11:43.843Z,13.57
2022-10-09T20:13:16.992Z,13.53
2022-10-09T20:14:50.233Z,13.49
2022-10-09T20:16:24.576Z,13.45
2022-10-09T20:17:58.024Z,13.42
2022-10-09T20:19:31.618Z,13.35
2022-10-09T20:21:05.398Z,13.32
2022-10-09T20:22:39.991Z,13.29
2022-10-09T20:24:13.240Z,13.23
2022-10-09T20:25:47.518Z,13.16
2022-10-09T20:27:20.774Z,13.09
2022-10-09T20:28:54.980Z,13.06
2022-10-09T20:30:28.111Z,13.02
2022-10-09T20:32:01.289Z,12.97
2022-10-09T20:33:34.719Z,12.87
2022-10-09T20:35:08.942Z,12.97
2022-10-09T20:36:42.307Z,12.96
2022-10-09T20:38:20.855Z,12.90
2022-10-09T20:39:58.256Z,12.89
2022-10-09T20:41:32.812Z,12.88
2022-10-09T20:43:06.141Z,12.87
2022-10-09T20:44:39.339Z,12.86